»·PEaware :: N129WS L52-KSBP

N129WS :: L52-KSBP

FLIGHT INFORMATION

Flight Status: Arrived
Operator: Privately registered:
United States
More flights under this callsign
Pilot: Evens F. (14710)
Aircraft: CESSNA 172 SKYHAWK
(C172)
More flights by this aircraft type
Origin: L52 Oceano Co
United States
Destination: KSBP San Luis Co Regl
United States
More flights between these airports :: More routes between these airports
Route: GPS DIRECT
File this flight plan on PilotEdge
Remarks: New Pilot
Altitude:
(Current/Filed)
4,000ft
Speed:
(Current/Filed)
110kts
Departed: 27-Jan-19 06:17 PM
Arrived: 27-Jan-19 06:47 PM
Distance/Time
Traveled:
8nm/0:30
Distance/Time
To Go:
Arrived

Flight Plot

Page will automatically refresh every two minutes.

Flight plan parsing failed; only flown route is shown


Map Options




Map Legend


Flown Route
Filed Route
Departure Airport
Arrival Airport
Navaid (VOR, NDB)
Fix

Horizontal Profiles

Position Reports

Time Latitude Longitude Heading Altitude Ground
Speed
27-Jan-19 17:32 35.103213 -120.624569 215 18ft 0kts
27-Jan-19 17:33 35.103213 -120.624569 215 18ft 0kts
27-Jan-19 17:34 35.103213 -120.624569 215 18ft 0kts
27-Jan-19 17:35 35.103213 -120.624569 215 18ft 0kts
27-Jan-19 17:36 35.103213 -120.624569 215 18ft 0kts
27-Jan-19 17:37 35.103213 -120.624569 215 18ft 0kts
27-Jan-19 17:38 35.103213 -120.624569 215 18ft 0kts
27-Jan-19 17:39 35.103213 -120.624569 215 18ft 0kts
27-Jan-19 17:40 35.103213 -120.624569 215 18ft 0kts
27-Jan-19 17:41 35.103213 -120.624569 215 18ft 0kts
27-Jan-19 17:42 35.103213 -120.624569 215 18ft 0kts
27-Jan-19 17:43 35.103213 -120.624569 215 18ft 0kts
27-Jan-19 17:44 35.103213 -120.624569 215 18ft 0kts
27-Jan-19 17:45 35.103213 -120.624569 215 18ft 0kts
27-Jan-19 17:46 35.103213 -120.624569 215 18ft 0kts
27-Jan-19 17:47 35.103213 -120.624569 215 18ft 0kts
27-Jan-19 17:48 35.103213 -120.624569 215 18ft 0kts
27-Jan-19 17:49 35.103213 -120.624569 215 18ft 0kts
27-Jan-19 17:50 35.103213 -120.624569 215 18ft 0kts
27-Jan-19 17:51 35.103213 -120.624569 215 18ft 0kts
27-Jan-19 17:53 35.103213 -120.624569 215 18ft 0kts
27-Jan-19 17:54 35.103213 -120.624569 215 18ft 0kts
27-Jan-19 17:55 35.103213 -120.624569 215 18ft 0kts
27-Jan-19 17:56 35.103213 -120.624569 215 18ft 0kts
27-Jan-19 17:57 35.103213 -120.624569 215 18ft 0kts
27-Jan-19 17:58 35.103213 -120.624569 215 18ft 0kts
27-Jan-19 17:59 35.103213 -120.624569 215 18ft 0kts
27-Jan-19 18:00 35.103213 -120.624569 215 18ft 0kts
27-Jan-19 18:01 35.103213 -120.624569 215 18ft 0kts
27-Jan-19 18:02 35.103213 -120.624569 215 18ft 0kts
27-Jan-19 18:03 35.103194 -120.624587 226 18ft 0kts
27-Jan-19 18:04 35.103195 -120.624587 226 18ft 0kts
27-Jan-19 18:05 35.103195 -120.624587 226 18ft 0kts
27-Jan-19 18:06 35.103195 -120.624587 226 18ft 0kts
27-Jan-19 18:07 35.103002 -120.623941 114 18ft 9kts
27-Jan-19 18:08 35.102268 -120.622295 123 18ft 0kts
27-Jan-19 18:09 35.101915 -120.622013 164 18ft 0kts
27-Jan-19 18:10 35.101734 -120.622259 190 18ft 0kts
27-Jan-19 18:10 35.101734 -120.622259 190 18ft 0kts
27-Jan-19 18:12 35.099612 -120.619627 101 18ft 0kts
27-Jan-19 18:13 35.099612 -120.619627 101 18ft 0kts
27-Jan-19 18:13 35.099612 -120.619627 101 18ft 0kts
27-Jan-19 18:14 35.099597 -120.619541 101 18ft 0kts
27-Jan-19 18:15 35.099581 -120.619349 82 18ft 5kts
27-Jan-19 18:17 35.107292 -120.633250 306 425ft 84kts
27-Jan-19 18:17 35.124349 -120.635445 35 1261ft 94kts
27-Jan-19 18:18 35.145506 -120.618319 41 2236ft 94kts
27-Jan-19 18:19 35.141645 -120.585690 108 3162ft 99kts
27-Jan-19 18:20 35.129597 -120.554295 115 3995ft 103kts
27-Jan-19 18:21 35.140116 -120.530974 335 4022ft 112kts
27-Jan-19 18:22 35.160305 -120.554136 315 3694ft 82kts
27-Jan-19 18:23 35.174848 -120.572762 311 3908ft 74kts
27-Jan-19 18:24 35.190088 -120.591190 318 4081ft 84kts
27-Jan-19 18:25 35.203829 -120.613608 280 4084ft 91kts
27-Jan-19 18:26 35.209225 -120.644046 278 4116ft 93kts
27-Jan-19 18:27 35.213627 -120.676004 283 4059ft 98kts
27-Jan-19 18:28 35.218400 -120.708111 283 4047ft 98kts
27-Jan-19 18:29 35.226021 -120.740035 301 3991ft 96kts
27-Jan-19 18:30 35.238570 -120.765949 302 3991ft 94kts
27-Jan-19 18:31 35.251958 -120.793562 302 3991ft 94kts
27-Jan-19 18:32 35.265532 -120.821517 302 3993ft 101kts
27-Jan-19 18:33 35.280644 -120.852368 302 3991ft 107kts
27-Jan-19 18:34 35.296083 -120.883817 302 3991ft 108kts
27-Jan-19 18:35 35.317264 -120.906185 351 3991ft 108kts
27-Jan-19 18:36 35.347366 -120.909470 353 3991ft 108kts
27-Jan-19 18:37 35.375536 -120.894903 41 3988ft 114kts
27-Jan-19 18:38 35.364378 -120.859133 123 3717ft 119kts
27-Jan-19 18:39 35.343389 -120.826066 123 3284ft 123kts
27-Jan-19 18:40 35.324731 -120.793126 123 3040ft 120kts
27-Jan-19 18:41 35.305027 -120.759772 124 2513ft 104kts
27-Jan-19 18:42 35.288898 -120.731369 119 2038ft 103kts
27-Jan-19 18:43 35.272581 -120.702159 122 1362ft 106kts
27-Jan-19 18:44 35.256157 -120.673905 119 777ft 95kts
27-Jan-19 18:45 35.241793 -120.648292 139 254ft 83kts
27-Jan-19 18:46 35.235307 -120.635955 80 216ft 16kts
27-Jan-19 18:47 35.235716 -120.635321 310 216ft 0kts
27-Jan-19 18:48 35.237894 -120.636542 318 216ft 7kts
27-Jan-19 18:49 35.238009 -120.636722 276 216ft 0kts
27-Jan-19 18:50 35.238009 -120.636722 276 216ft 0kts
27-Jan-19 18:51 35.238009 -120.636722 276 216ft 0kts
27-Jan-19 18:52 35.238019 -120.636815 277 216ft 0kts
27-Jan-19 18:53 35.238032 -120.636929 277 216ft 0kts
27-Jan-19 18:54 35.238045 -120.637043 277 216ft 0kts
27-Jan-19 18:55 35.238053 -120.637110 278 216ft 0kts
27-Jan-19 18:56 35.238053 -120.637110 278 216ft 0kts
27-Jan-19 18:57 35.238053 -120.637110 278 216ft 0kts

Navigation Log

Ident Type
Flight plan parsing failed, navigation log unavailable